< Typhoon 198809 1988 Season Typhoon 198811 >
Typhoon 198810 (CLARA)
General InformationTrack Information on Google MapsDetailed Wind InformationList of All Images || Disaster Info.ResourceGoogle EarthGE AnimationAtom FeedGeoJSON
Detalied Best Track (Time Zone = UTC)
Year Month Day Hour Lat. Long. Pressure (hPa) Wind (kt) Class Image Chart
1988 8 5 18 26.5 174.5 1012 0 2 Image Chart
1988 8 6 00 27.0 173.5 1012 0 2 Image Chart
1988 8 6 06 27.5 172.0 1012 0 2 Image Chart
1988 8 6 12 28.0 170.5 1012 0 2 Image Chart
1988 8 6 18 28.0 169.0 1012 0 2 Image Chart
1988 8 7 00 28.0 168.0 1012 0 2 Image Chart
1988 8 7 06 28.0 167.0 1012 0 2 Image Chart
1988 8 7 12 28.0 166.0 1012 0 2 Image Chart
1988 8 7 18 28.0 165.0 1012 0 2 Image Chart
1988 8 8 00 28.0 164.5 1008 0 2 Image Chart
1988 8 8 06 28.0 164.0 1008 0 2 Image Chart
1988 8 8 12 28.0 163.5 1008 0 2 Image Chart
1988 8 8 18 28.5 164.0 1006 0 2 Image Chart
1988 8 9 00 29.0 164.0 1006 0 2 Image Chart
1988 8 9 06 29.0 163.5 1006 0 2 Image Chart
1988 8 9 12 29.0 163.0 1004 0 2 Image Chart
1988 8 9 18 28.5 162.5 1004 0 2 Image Chart
1988 8 10 00 29.0 162.0 1002 0 2 Image Chart
1988 8 10 06 29.0 161.5 1000 0 2 Image Chart
1988 8 10 12 29.0 161.0 998 35 3 Image Chart
1988 8 10 18 29.0 161.5 996 40 3 Image Chart
1988 8 11 00 29.4 161.0 994 40 3 Image Chart
1988 8 11 06 28.5 160.7 994 40 3 Image Chart
1988 8 11 12 28.5 161.2 994 40 3 Image Chart
1988 8 11 18 28.9 161.3 994 40 3 Image Chart
1988 8 12 00 29.5 161.3 996 35 3 Image Chart
1988 8 12 06 30.1 161.3 996 35 3 Image Chart
1988 8 12 12 30.8 161.5 996 35 3 Image Chart
1988 8 12 18 31.6 161.7 996 35 3 Image Chart
1988 8 13 00 32.4 161.8 998 35 3 Image Chart
1988 8 13 06 33.4 161.4 998 35 3 Image Chart
1988 8 13 12 34.3 160.9 998 35 3 Image Chart
1988 8 13 18 35.2 160.1 998 35 3 Image Chart
1988 8 14 00 36.0 159.3 998 35 3 Image Chart
1988 8 14 06 37.0 158.3 1000 35 3 Image Chart
1988 8 14 12 38.0 157.0 1002 0 2 Image Chart
1988 8 14 18 38.8 155.5 1004 0 2 Image Chart
1988 8 15 00 39.5 154.0 1006 0 2 Image Chart
1988 8 15 06 40.0 153.0 1008 0 2 Image Chart
1988 8 15 12 40.6 152.2 1010 0 2 Image Chart
1988 8 15 18 41.5 151.5 1012 0 2 Image Chart
1988 8 16 00 43.0 151.0 1014 0 2 Image Chart
1988 8 16 06 44.0 151.0 1014 0 2 Image Chart
1988 8 16 12 44.5 151.5 1014 0 6 Image Chart
1988 8 16 18 45.5 153.0 1014 0 6 Image Chart
Japan Meteorological Agency Best Track Data | Correction Date : 1992-10-21
< Typhoon 198809 1988 Season Typhoon 198811 >

Help